sensor_id;sensor_type;location;lat;lon;timestamp;P1;durP1;ratioP1;P2;durP2;ratioP2
21591;SDS011;10958;50.892;3.992;2023-05-07T00:01:36;11.00;;;5.03;;
21591;SDS011;10958;50.892;3.992;2023-05-07T00:04:02;13.27;;;5.10;;
21591;SDS011;10958;50.892;3.992;2023-05-07T00:09:20;10.93;;;5.28;;
21591;SDS011;10958;50.892;3.992;2023-05-07T00:11:45;11.57;;;4.95;;
21591;SDS011;10958;50.892;3.992;2023-05-07T00:14:11;11.80;;;4.65;;
21591;SDS011;10958;50.892;3.992;2023-05-07T00:16:37;10.65;;;5.43;;
21591;SDS011;10958;50.892;3.992;2023-05-07T00:19:03;12.40;;;5.28;;
21591;SDS011;10958;50.892;3.992;2023-05-07T00:21:28;9.30;;;5.53;;
21591;SDS011;10958;50.892;3.992;2023-05-07T00:23:55;12.13;;;5.28;;
21591;SDS011;10958;50.892;3.992;2023-05-07T00:26:21;9.38;;;5.60;;
21591;SDS011;10958;50.892;3.992;2023-05-07T00:28:49;11.70;;;5.53;;
21591;SDS011;10958;50.892;3.992;2023-05-07T00:31:15;12.85;;;5.43;;
21591;SDS011;10958;50.892;3.992;2023-05-07T00:33:40;9.02;;;5.22;;
21591;SDS011;10958;50.892;3.992;2023-05-07T00:36:06;13.75;;;5.90;;
21591;SDS011;10958;50.892;3.992;2023-05-07T00:38:32;12.32;;;5.30;;
21591;SDS011;10958;50.892;3.992;2023-05-07T00:40:58;14.70;;;5.50;;
21591;SDS011;10958;50.892;3.992;2023-05-07T00:43:24;11.25;;;5.38;;
21591;SDS011;10958;50.892;3.992;2023-05-07T00:45:50;10.63;;;5.53;;
21591;SDS011;10958;50.892;3.992;2023-05-07T00:48:15;10.85;;;5.57;;
21591;SDS011;10958;50.892;3.992;2023-05-07T00:50:41;8.35;;;4.68;;
21591;SDS011;10958;50.892;3.992;2023-05-07T00:53:08;13.15;;;4.90;;
21591;SDS011;10958;50.892;3.992;2023-05-07T00:55:34;9.15;;;5.20;;
21591;SDS011;10958;50.892;3.992;2023-05-07T00:58:01;12.10;;;5.57;;
21591;SDS011;10958;50.892;3.992;2023-05-07T01:00:27;11.68;;;5.43;;
21591;SDS011;10958;50.892;3.992;2023-05-07T01:02:58;10.00;;;5.25;;
21591;SDS011;10958;50.892;3.992;2023-05-07T01:05:24;13.10;;;5.60;;
21591;SDS011;10958;50.892;3.992;2023-05-07T01:07:55;15.13;;;5.90;;
21591;SDS011;10958;50.892;3.992;2023-05-07T01:10:22;14.13;;;6.13;;
21591;SDS011;10958;50.892;3.992;2023-05-07T01:12:49;11.63;;;5.93;;
21591;SDS011;10958;50.892;3.992;2023-05-07T01:15:16;9.60;;;5.82;;
21591;SDS011;10958;50.892;3.992;2023-05-07T01:17:42;11.88;;;6.00;;
21591;SDS011;10958;50.892;3.992;2023-05-07T01:20:09;10.88;;;5.65;;
21591;SDS011;10958;50.892;3.992;2023-05-07T01:22:36;12.73;;;5.85;;
21591;SDS011;10958;50.892;3.992;2023-05-07T01:25:03;10.35;;;5.30;;
21591;SDS011;10958;50.892;3.992;2023-05-07T01:27:30;7.88;;;4.95;;
21591;SDS011;10958;50.892;3.992;2023-05-07T01:29:56;9.98;;;5.20;;
21591;SDS011;10958;50.892;3.992;2023-05-07T01:32:24;9.52;;;5.43;;
21591;SDS011;10958;50.892;3.992;2023-05-07T01:34:57;13.65;;;5.20;;
21591;SDS011;10958;50.892;3.992;2023-05-07T01:37:25;9.55;;;5.43;;
21591;SDS011;10958;50.892;3.992;2023-05-07T01:39:51;11.73;;;5.43;;
21591;SDS011;10958;50.892;3.992;2023-05-07T01:42:20;10.95;;;5.15;;
21591;SDS011;10958;50.892;3.992;2023-05-07T01:44:50;14.10;;;5.25;;
21591;SDS011;10958;50.892;3.992;2023-05-07T01:47:16;7.65;;;4.70;;
21591;SDS011;10958;50.892;3.992;2023-05-07T01:49:42;9.70;;;5.20;;
21591;SDS011;10958;50.892;3.992;2023-05-07T01:52:09;9.13;;;5.15;;
21591;SDS011;10958;50.892;3.992;2023-05-07T01:54:38;8.15;;;4.70;;
21591;SDS011;10958;50.892;3.992;2023-05-07T01:57:06;13.93;;;5.28;;
21591;SDS011;10958;50.892;3.992;2023-05-07T01:59:32;12.93;;;4.80;;
21591;SDS011;10958;50.892;3.992;2023-05-07T02:01:58;11.60;;;5.15;;
21591;SDS011;10958;50.892;3.992;2023-05-07T02:04:23;12.77;;;5.22;;
21591;SDS011;10958;50.892;3.992;2023-05-07T02:06:49;13.13;;;5.95;;
21591;SDS011;10958;50.892;3.992;2023-05-07T02:09:15;13.88;;;5.82;;
21591;SDS011;10958;50.892;3.992;2023-05-07T02:11:41;8.40;;;5.13;;
21591;SDS011;10958;50.892;3.992;2023-05-07T02:14:07;7.97;;;4.28;;
21591;SDS011;10958;50.892;3.992;2023-05-07T02:16:33;12.88;;;5.72;;
21591;SDS011;10958;50.892;3.992;2023-05-07T02:18:59;10.10;;;5.32;;
21591;SDS011;10958;50.892;3.992;2023-05-07T02:21:28;10.38;;;5.57;;
21591;SDS011;10958;50.892;3.992;2023-05-07T02:23:53;9.07;;;4.82;;
21591;SDS011;10958;50.892;3.992;2023-05-07T02:26:19;12.05;;;5.18;;
21591;SDS011;10958;50.892;3.992;2023-05-07T02:28:46;11.38;;;5.28;;
21591;SDS011;10958;50.892;3.992;2023-05-07T02:31:12;15.27;;;5.32;;
21591;SDS011;10958;50.892;3.992;2023-05-07T02:33:38;11.40;;;4.90;;
21591;SDS011;10958;50.892;3.992;2023-05-07T02:36:07;9.27;;;5.10;;
21591;SDS011;10958;50.892;3.992;2023-05-07T02:38:34;9.80;;;5.03;;
21591;SDS011;10958;50.892;3.992;2023-05-07T02:41:00;11.63;;;5.53;;
21591;SDS011;10958;50.892;3.992;2023-05-07T02:43:26;11.77;;;5.43;;
21591;SDS011;10958;50.892;3.992;2023-05-07T02:46:11;11.73;;;4.97;;
21591;SDS011;10958;50.892;3.992;2023-05-07T02:48:40;10.55;;;4.97;;
21591;SDS011;10958;50.892;3.992;2023-05-07T02:51:06;10.73;;;5.07;;
21591;SDS011;10958;50.892;3.992;2023-05-07T02:53:34;9.27;;;5.07;;
21591;SDS011;10958;50.892;3.992;2023-05-07T02:56:00;13.97;;;5.10;;
21591;SDS011;10958;50.892;3.992;2023-05-07T02:58:27;10.48;;;4.85;;
21591;SDS011;10958;50.892;3.992;2023-05-07T03:00:55;12.30;;;5.50;;
21591;SDS011;10958;50.892;3.992;2023-05-07T03:03:21;11.80;;;4.65;;
21591;SDS011;10958;50.892;3.992;2023-05-07T03:05:46;11.13;;;4.70;;
21591;SDS011;10958;50.892;3.992;2023-05-07T03:08:12;8.60;;;5.18;;
21591;SDS011;10958;50.892;3.992;2023-05-07T03:10:38;9.82;;;4.68;;
21591;SDS011;10958;50.892;3.992;2023-05-07T03:13:04;12.80;;;4.82;;
21591;SDS011;10958;50.892;3.992;2023-05-07T03:15:30;9.98;;;4.80;;
21591;SDS011;10958;50.892;3.992;2023-05-07T03:17:56;9.48;;;5.07;;
21591;SDS011;10958;50.892;3.992;2023-05-07T03:20:22;12.60;;;5.03;;
21591;SDS011;10958;50.892;3.992;2023-05-07T03:22:48;7.75;;;4.53;;
21591;SDS011;10958;50.892;3.992;2023-05-07T03:25:13;8.48;;;5.20;;
21591;SDS011;10958;50.892;3.992;2023-05-07T03:27:39;12.15;;;4.50;;
21591;SDS011;10958;50.892;3.992;2023-05-07T03:30:07;8.98;;;4.78;;
21591;SDS011;10958;50.892;3.992;2023-05-07T03:32:33;12.00;;;5.35;;
21591;SDS011;10958;50.892;3.992;2023-05-07T03:35:00;17.90;;;5.18;;
21591;SDS011;10958;50.892;3.992;2023-05-07T03:37:26;11.93;;;5.78;;
21591;SDS011;10958;50.892;3.992;2023-05-07T03:39:52;7.97;;;5.55;;
21591;SDS011;10958;50.892;3.992;2023-05-07T03:42:18;10.30;;;5.70;;
21591;SDS011;10958;50.892;3.992;2023-05-07T03:44:44;11.13;;;6.03;;
21591;SDS011;10958;50.892;3.992;2023-05-07T03:47:10;11.27;;;5.70;;
21591;SDS011;10958;50.892;3.992;2023-05-07T03:49:36;12.02;;;5.60;;
21591;SDS011;10958;50.892;3.992;2023-05-07T03:52:02;10.18;;;5.15;;
21591;SDS011;10958;50.892;3.992;2023-05-07T03:54:28;11.77;;;5.30;;
21591;SDS011;10958;50.892;3.992;2023-05-07T03:56:55;11.88;;;5.78;;
21591;SDS011;10958;50.892;3.992;2023-05-07T03:59:21;15.95;;;5.88;;
21591;SDS011;10958;50.892;3.992;2023-05-07T04:01:47;11.70;;;5.65;;
21591;SDS011;10958;50.892;3.992;2023-05-07T04:04:14;12.70;;;5.97;;
21591;SDS011;10958;50.892;3.992;2023-05-07T04:06:40;14.57;;;5.70;;
21591;SDS011;10958;50.892;3.992;2023-05-07T04:09:06;10.85;;;5.25;;
21591;SDS011;10958;50.892;3.992;2023-05-07T04:11:35;19.23;;;6.28;;
21591;SDS011;10958;50.892;3.992;2023-05-07T04:14:03;9.95;;;5.53;;
21591;SDS011;10958;50.892;3.992;2023-05-07T04:16:29;12.63;;;5.10;;
21591;SDS011;10958;50.892;3.992;2023-05-07T04:18:55;11.13;;;5.38;;
21591;SDS011;10958;50.892;3.992;2023-05-07T04:21:21;8.60;;;4.75;;
21591;SDS011;10958;50.892;3.992;2023-05-07T04:23:47;8.93;;;5.28;;
21591;SDS011;10958;50.892;3.992;2023-05-07T04:26:13;9.93;;;5.13;;
21591;SDS011;10958;50.892;3.992;2023-05-07T04:28:40;8.93;;;5.10;;
21591;SDS011;10958;50.892;3.992;2023-05-07T04:31:05;12.98;;;5.32;;
21591;SDS011;10958;50.892;3.992;2023-05-07T04:33:31;11.80;;;5.63;;
21591;SDS011;10958;50.892;3.992;2023-05-07T04:35:58;8.77;;;5.20;;
21591;SDS011;10958;50.892;3.992;2023-05-07T04:38:29;10.35;;;5.78;;
21591;SDS011;10958;50.892;3.992;2023-05-07T04:41:04;11.57;;;5.82;;
21591;SDS011;10958;50.892;3.992;2023-05-07T04:43:32;8.55;;;5.38;;
21591;SDS011;10958;50.892;3.992;2023-05-07T04:45:58;13.23;;;5.97;;
21591;SDS011;10958;50.892;3.992;2023-05-07T04:48:24;14.75;;;5.75;;
21591;SDS011;10958;50.892;3.992;2023-05-07T04:50:52;12.80;;;6.07;;
21591;SDS011;10958;50.892;3.992;2023-05-07T04:53:18;21.88;;;5.90;;
21591;SDS011;10958;50.892;3.992;2023-05-07T04:55:44;11.98;;;5.80;;
21591;SDS011;10958;50.892;3.992;2023-05-07T04:58:10;9.88;;;5.38;;
21591;SDS011;10958;50.892;3.992;2023-05-07T05:00:36;12.23;;;5.20;;
21591;SDS011;10958;50.892;3.992;2023-05-07T05:03:03;14.10;;;5.32;;
21591;SDS011;10958;50.892;3.992;2023-05-07T05:05:30;10.70;;;5.57;;
21591;SDS011;10958;50.892;3.992;2023-05-07T05:07:55;11.85;;;5.57;;
21591;SDS011;10958;50.892;3.992;2023-05-07T05:10:21;10.90;;;5.07;;
21591;SDS011;10958;50.892;3.992;2023-05-07T05:12:50;17.80;;;5.78;;
21591;SDS011;10958;50.892;3.992;2023-05-07T05:15:16;9.38;;;5.43;;
21591;SDS011;10958;50.892;3.992;2023-05-07T05:17:42;9.57;;;5.15;;
21591;SDS011;10958;50.892;3.992;2023-05-07T05:20:08;12.90;;;5.70;;
21591;SDS011;10958;50.892;3.992;2023-05-07T05:22:35;9.82;;;5.18;;
21591;SDS011;10958;50.892;3.992;2023-05-07T05:25:01;16.88;;;5.40;;
21591;SDS011;10958;50.892;3.992;2023-05-07T05:27:27;9.00;;;5.38;;
21591;SDS011;10958;50.892;3.992;2023-05-07T05:29:54;15.40;;;5.03;;
21591;SDS011;10958;50.892;3.992;2023-05-07T05:32:20;15.48;;;5.80;;
21591;SDS011;10958;50.892;3.992;2023-05-07T05:34:46;13.15;;;6.32;;
21591;SDS011;10958;50.892;3.992;2023-05-07T05:37:11;17.20;;;5.90;;
21591;SDS011;10958;50.892;3.992;2023-05-07T05:39:37;11.80;;;5.28;;
21591;SDS011;10958;50.892;3.992;2023-05-07T05:42:06;18.10;;;6.07;;
21591;SDS011;10958;50.892;3.992;2023-05-07T05:44:31;12.13;;;5.47;;
21591;SDS011;10958;50.892;3.992;2023-05-07T05:46:57;10.95;;;5.22;;
21591;SDS011;10958;50.892;3.992;2023-05-07T05:49:24;13.02;;;5.10;;
21591;SDS011;10958;50.892;3.992;2023-05-07T05:51:50;10.77;;;5.57;;
21591;SDS011;10958;50.892;3.992;2023-05-07T05:54:16;14.32;;;5.22;;
21591;SDS011;10958;50.892;3.992;2023-05-07T05:56:42;11.80;;;5.15;;
21591;SDS011;10958;50.892;3.992;2023-05-07T05:59:11;14.07;;;5.18;;
21591;SDS011;10958;50.892;3.992;2023-05-07T06:01:36;12.68;;;5.00;;
21591;SDS011;10958;50.892;3.992;2023-05-07T06:04:02;11.18;;;5.10;;
21591;SDS011;10958;50.892;3.992;2023-05-07T06:06:28;11.13;;;5.03;;
21591;SDS011;10958;50.892;3.992;2023-05-07T06:08:54;12.45;;;4.30;;
21591;SDS011;10958;50.892;3.992;2023-05-07T06:11:20;12.63;;;4.25;;
21591;SDS011;10958;50.892;3.992;2023-05-07T06:13:46;9.48;;;4.00;;
21591;SDS011;10958;50.892;3.992;2023-05-07T06:16:12;11.00;;;3.88;;
21591;SDS011;10958;50.892;3.992;2023-05-07T06:18:37;11.40;;;3.90;;
21591;SDS011;10958;50.892;3.992;2023-05-07T06:21:03;8.75;;;3.90;;
21591;SDS011;10958;50.892;3.992;2023-05-07T06:23:29;7.88;;;3.50;;
21591;SDS011;10958;50.892;3.992;2023-05-07T06:25:55;7.80;;;3.53;;
21591;SDS011;10958;50.892;3.992;2023-05-07T06:28:20;7.35;;;3.88;;
21591;SDS011;10958;50.892;3.992;2023-05-07T06:30:46;9.40;;;3.88;;
21591;SDS011;10958;50.892;3.992;2023-05-07T06:33:13;11.68;;;3.78;;
21591;SDS011;10958;50.892;3.992;2023-05-07T06:35:40;8.63;;;4.03;;
21591;SDS011;10958;50.892;3.992;2023-05-07T06:38:05;8.35;;;3.92;;
21591;SDS011;10958;50.892;3.992;2023-05-07T06:40:31;7.63;;;4.10;;
21591;SDS011;10958;50.892;3.992;2023-05-07T06:42:57;9.80;;;4.43;;
21591;SDS011;10958;50.892;3.992;2023-05-07T06:45:22;8.43;;;3.97;;
21591;SDS011;10958;50.892;3.992;2023-05-07T06:47:48;10.10;;;4.38;;
21591;SDS011;10958;50.892;3.992;2023-05-07T06:50:14;10.23;;;3.83;;
21591;SDS011;10958;50.892;3.992;2023-05-07T06:52:41;7.45;;;3.70;;
21591;SDS011;10958;50.892;3.992;2023-05-07T06:55:10;11.70;;;3.75;;
21591;SDS011;10958;50.892;3.992;2023-05-07T06:57:37;11.48;;;4.13;;
21591;SDS011;10958;50.892;3.992;2023-05-07T07:00:04;7.35;;;3.70;;
21591;SDS011;10958;50.892;3.992;2023-05-07T07:02:32;8.23;;;3.73;;
21591;SDS011;10958;50.892;3.992;2023-05-07T07:04:57;10.05;;;4.22;;
21591;SDS011;10958;50.892;3.992;2023-05-07T07:07:23;7.88;;;4.18;;
21591;SDS011;10958;50.892;3.992;2023-05-07T07:09:50;9.80;;;4.93;;
21591;SDS011;10958;50.892;3.992;2023-05-07T07:12:16;7.68;;;4.00;;
21591;SDS011;10958;50.892;3.992;2023-05-07T07:14:42;8.50;;;4.63;;
21591;SDS011;10958;50.892;3.992;2023-05-07T07:17:09;8.40;;;4.30;;
21591;SDS011;10958;50.892;3.992;2023-05-07T07:19:35;7.10;;;3.38;;
21591;SDS011;10958;50.892;3.992;2023-05-07T07:22:01;6.53;;;3.40;;
21591;SDS011;10958;50.892;3.992;2023-05-07T07:24:27;8.15;;;3.15;;
21591;SDS011;10958;50.892;3.992;2023-05-07T07:26:53;5.10;;;2.83;;
21591;SDS011;10958;50.892;3.992;2023-05-07T07:29:22;6.82;;;3.05;;
21591;SDS011;10958;50.892;3.992;2023-05-07T07:31:51;6.53;;;3.33;;
21591;SDS011;10958;50.892;3.992;2023-05-07T07:34:20;6.85;;;3.15;;
21591;SDS011;10958;50.892;3.992;2023-05-07T07:36:47;7.60;;;3.03;;
21591;SDS011;10958;50.892;3.992;2023-05-07T07:39:13;6.57;;;3.00;;
21591;SDS011;10958;50.892;3.992;2023-05-07T07:41:42;8.68;;;2.70;;
21591;SDS011;10958;50.892;3.992;2023-05-07T07:44:10;11.57;;;3.38;;
21591;SDS011;10958;50.892;3.992;2023-05-07T07:46:37;5.57;;;3.25;;
21591;SDS011;10958;50.892;3.992;2023-05-07T07:49:03;6.43;;;2.67;;
21591;SDS011;10958;50.892;3.992;2023-05-07T07:51:29;7.22;;;3.08;;
21591;SDS011;10958;50.892;3.992;2023-05-07T07:53:55;6.65;;;3.05;;
21591;SDS011;10958;50.892;3.992;2023-05-07T07:56:23;5.25;;;3.30;;
21591;SDS011;10958;50.892;3.992;2023-05-07T07:58:52;7.57;;;3.03;;
21591;SDS011;10958;50.892;3.992;2023-05-07T08:01:18;5.15;;;3.10;;
21591;SDS011;10958;50.892;3.992;2023-05-07T08:03:46;7.20;;;2.92;;
21591;SDS011;10958;50.892;3.992;2023-05-07T08:06:12;5.32;;;2.63;;
21591;SDS011;10958;50.892;3.992;2023-05-07T08:08:37;7.57;;;2.70;;
21591;SDS011;10958;50.892;3.992;2023-05-07T08:11:03;8.90;;;2.72;;
21591;SDS011;10958;50.892;3.992;2023-05-07T08:13:31;8.50;;;2.70;;
21591;SDS011;10958;50.892;3.992;2023-05-07T08:15:59;6.40;;;3.50;;
21591;SDS011;10958;50.892;3.992;2023-05-07T08:18:25;6.93;;;3.47;;
21591;SDS011;10958;50.892;3.992;2023-05-07T08:20:51;10.25;;;3.60;;
21591;SDS011;10958;50.892;3.992;2023-05-07T08:23:17;7.03;;;3.40;;
21591;SDS011;10958;50.892;3.992;2023-05-07T08:25:43;8.00;;;3.13;;
21591;SDS011;10958;50.892;3.992;2023-05-07T08:28:09;8.77;;;3.33;;
21591;SDS011;10958;50.892;3.992;2023-05-07T08:30:35;7.72;;;2.85;;
21591;SDS011;10958;50.892;3.992;2023-05-07T08:33:00;5.20;;;2.90;;
21591;SDS011;10958;50.892;3.992;2023-05-07T08:35:28;6.70;;;3.35;;
21591;SDS011;10958;50.892;3.992;2023-05-07T08:37:54;5.45;;;3.83;;
21591;SDS011;10958;50.892;3.992;2023-05-07T08:40:22;6.88;;;3.38;;
21591;SDS011;10958;50.892;3.992;2023-05-07T08:42:51;6.93;;;3.55;;
21591;SDS011;10958;50.892;3.992;2023-05-07T08:45:18;6.25;;;3.47;;
21591;SDS011;10958;50.892;3.992;2023-05-07T08:47:50;7.97;;;4.05;;
21591;SDS011;10958;50.892;3.992;2023-05-07T08:50:20;9.13;;;4.22;;
21591;SDS011;10958;50.892;3.992;2023-05-07T08:52:46;8.02;;;4.30;;
21591;SDS011;10958;50.892;3.992;2023-05-07T08:55:21;7.00;;;3.28;;
21591;SDS011;10958;50.892;3.992;2023-05-07T08:57:47;7.00;;;3.42;;
21591;SDS011;10958;50.892;3.992;2023-05-07T09:00:14;6.40;;;3.58;;
21591;SDS011;10958;50.892;3.992;2023-05-07T09:02:47;9.95;;;3.63;;
21591;SDS011;10958;50.892;3.992;2023-05-07T09:05:15;7.68;;;4.00;;
21591;SDS011;10958;50.892;3.992;2023-05-07T09:07:41;7.60;;;3.58;;
21591;SDS011;10958;50.892;3.992;2023-05-07T09:10:09;6.63;;;4.13;;
21591;SDS011;10958;50.892;3.992;2023-05-07T09:12:34;7.35;;;3.55;;
21591;SDS011;10958;50.892;3.992;2023-05-07T09:15:01;4.00;;;2.58;;
21591;SDS011;10958;50.892;3.992;2023-05-07T09:17:27;6.90;;;2.92;;
21591;SDS011;10958;50.892;3.992;2023-05-07T09:19:56;5.05;;;2.33;;
21591;SDS011;10958;50.892;3.992;2023-05-07T09:22:33;3.50;;;2.40;;
21591;SDS011;10958;50.892;3.992;2023-05-07T09:25:01;3.80;;;2.33;;
21591;SDS011;10958;50.892;3.992;2023-05-07T09:27:27;6.88;;;2.58;;
21591;SDS011;10958;50.892;3.992;2023-05-07T09:29:53;3.75;;;2.40;;
21591;SDS011;10958;50.892;3.992;2023-05-07T09:32:19;5.97;;;2.47;;
21591;SDS011;10958;50.892;3.992;2023-05-07T09:34:45;6.78;;;3.30;;
21591;SDS011;10958;50.892;3.992;2023-05-07T09:37:12;5.85;;;2.97;;
21591;SDS011;10958;50.892;3.992;2023-05-07T09:39:46;8.43;;;2.80;;
21591;SDS011;10958;50.892;3.992;2023-05-07T09:42:15;4.80;;;2.47;;
21591;SDS011;10958;50.892;3.992;2023-05-07T09:44:43;6.18;;;3.08;;
21591;SDS011;10958;50.892;3.992;2023-05-07T09:47:10;4.88;;;3.00;;
21591;SDS011;10958;50.892;3.992;2023-05-07T09:49:37;5.00;;;3.47;;
21591;SDS011;10958;50.892;3.992;2023-05-07T09:52:05;5.80;;;3.67;;
21591;SDS011;10958;50.892;3.992;2023-05-07T09:54:34;7.75;;;4.15;;
21591;SDS011;10958;50.892;3.992;2023-05-07T09:59:29;9.00;;;4.45;;
21591;SDS011;10958;50.892;3.992;2023-05-07T10:02:00;6.93;;;4.15;;
21591;SDS011;10958;50.892;3.992;2023-05-07T10:04:26;8.27;;;4.90;;
21591;SDS011;10958;50.892;3.992;2023-05-07T10:06:58;5.05;;;3.90;;
21591;SDS011;10958;50.892;3.992;2023-05-07T10:12:25;9.65;;;5.10;;
21591;SDS011;10958;50.892;3.992;2023-05-07T10:14:53;7.45;;;4.30;;
21591;SDS011;10958;50.892;3.992;2023-05-07T10:17:23;5.70;;;4.18;;
21591;SDS011;10958;50.892;3.992;2023-05-07T10:19:48;7.55;;;4.25;;
21591;SDS011;10958;50.892;3.992;2023-05-07T10:22:16;4.47;;;4.00;;
21591;SDS011;10958;50.892;3.992;2023-05-07T10:24:45;8.05;;;4.43;;
21591;SDS011;10958;50.892;3.992;2023-05-07T10:27:20;9.25;;;4.40;;
21591;SDS011;10958;50.892;3.992;2023-05-07T10:32:38;6.20;;;4.60;;
21591;SDS011;10958;50.892;3.992;2023-05-07T10:35:11;8.75;;;4.25;;
21591;SDS011;10958;50.892;3.992;2023-05-07T10:37:44;6.07;;;4.35;;
21591;SDS011;10958;50.892;3.992;2023-05-07T10:40:11;5.93;;;4.22;;
21591;SDS011;10958;50.892;3.992;2023-05-07T10:42:37;8.13;;;4.45;;
21591;SDS011;10958;50.892;3.992;2023-05-07T10:45:15;8.00;;;5.03;;
21591;SDS011;10958;50.892;3.992;2023-05-07T10:50:35;6.68;;;4.95;;
21591;SDS011;10958;50.892;3.992;2023-05-07T10:55:51;6.97;;;4.95;;
21591;SDS011;10958;50.892;3.992;2023-05-07T10:58:37;5.50;;;4.78;;
21591;SDS011;10958;50.892;3.992;2023-05-07T11:01:03;8.40;;;4.85;;
21591;SDS011;10958;50.892;3.992;2023-05-07T11:03:29;6.47;;;4.80;;
21591;SDS011;10958;50.892;3.992;2023-05-07T11:09:10;5.85;;;3.80;;
21591;SDS011;10958;50.892;3.992;2023-05-07T11:11:46;4.07;;;3.47;;
21591;SDS011;10958;50.892;3.992;2023-05-07T11:15:01;6.50;;;3.70;;
21591;SDS011;10958;50.892;3.992;2023-05-07T11:17:11;5.32;;;3.35;;
21591;SDS011;10958;50.892;3.992;2023-05-07T11:19:53;5.85;;;3.78;;
21591;SDS011;10958;50.892;3.992;2023-05-07T11:25:28;4.28;;;3.15;;
21591;SDS011;10958;50.892;3.992;2023-05-07T11:27:54;4.70;;;3.58;;
21591;SDS011;10958;50.892;3.992;2023-05-07T11:30:20;3.10;;;2.72;;
21591;SDS011;10958;50.892;3.992;2023-05-07T11:32:47;3.22;;;2.25;;
21591;SDS011;10958;50.892;3.992;2023-05-07T11:35:13;4.72;;;2.13;;
21591;SDS011;10958;50.892;3.992;2023-05-07T11:37:47;3.28;;;1.73;;
21591;SDS011;10958;50.892;3.992;2023-05-07T11:40:14;3.80;;;1.88;;
21591;SDS011;10958;50.892;3.992;2023-05-07T11:42:42;2.00;;;1.67;;
21591;SDS011;10958;50.892;3.992;2023-05-07T11:45:10;3.00;;;1.30;;
21591;SDS011;10958;50.892;3.992;2023-05-07T11:47:36;3.20;;;1.70;;
21591;SDS011;10958;50.892;3.992;2023-05-07T11:50:03;1.92;;;1.50;;
21591;SDS011;10958;50.892;3.992;2023-05-07T11:52:30;3.88;;;1.88;;
21591;SDS011;10958;50.892;3.992;2023-05-07T11:54:57;3.38;;;2.00;;
21591;SDS011;10958;50.892;3.992;2023-05-07T11:57:25;3.37;;;2.03;;
21591;SDS011;10958;50.892;3.992;2023-05-07T11:59:52;2.58;;;2.05;;
21591;SDS011;10958;50.892;3.992;2023-05-07T12:02:22;3.13;;;2.67;;
21591;SDS011;10958;50.892;3.992;2023-05-07T12:08:31;6.63;;;3.67;;
21591;SDS011;10958;50.892;3.992;2023-05-07T12:10:56;6.47;;;4.28;;
21591;SDS011;10958;50.892;3.992;2023-05-07T12:13:26;6.80;;;5.78;;
21591;SDS011;10958;50.892;3.992;2023-05-07T12:15:52;5.72;;;4.85;;
21591;SDS011;10958;50.892;3.992;2023-05-07T12:18:18;6.60;;;5.18;;
21591;SDS011;10958;50.892;3.992;2023-05-07T12:20:45;7.90;;;5.57;;
21591;SDS011;10958;50.892;3.992;2023-05-07T12:23:12;7.05;;;5.90;;
21591;SDS011;10958;50.892;3.992;2023-05-07T12:25:38;7.88;;;6.55;;
21591;SDS011;10958;50.892;3.992;2023-05-07T12:28:05;7.30;;;6.60;;
21591;SDS011;10958;50.892;3.992;2023-05-07T12:30:39;6.95;;;6.35;;
21591;SDS011;10958;50.892;3.992;2023-05-07T12:33:05;6.93;;;5.75;;
21591;SDS011;10958;50.892;3.992;2023-05-07T12:35:32;7.93;;;6.38;;
21591;SDS011;10958;50.892;3.992;2023-05-07T12:38:04;7.70;;;6.75;;
21591;SDS011;10958;50.892;3.992;2023-05-07T12:40:43;5.72;;;5.13;;
21591;SDS011;10958;50.892;3.992;2023-05-07T12:43:26;6.28;;;5.07;;
21591;SDS011;10958;50.892;3.992;2023-05-07T12:45:56;6.97;;;5.72;;
21591;SDS011;10958;50.892;3.992;2023-05-07T12:48:24;6.93;;;4.75;;
21591;SDS011;10958;50.892;3.992;2023-05-07T12:50:55;5.75;;;4.82;;
21591;SDS011;10958;50.892;3.992;2023-05-07T12:53:22;6.43;;;4.82;;
21591;SDS011;10958;50.892;3.992;2023-05-07T12:55:58;7.87;;;4.90;;
21591;SDS011;10958;50.892;3.992;2023-05-07T12:58:27;8.15;;;4.78;;
21591;SDS011;10958;50.892;3.992;2023-05-07T13:00:56;6.90;;;4.35;;
21591;SDS011;10958;50.892;3.992;2023-05-07T13:03:29;6.38;;;4.68;;
21591;SDS011;10958;50.892;3.992;2023-05-07T13:06:01;9.07;;;5.45;;
21591;SDS011;10958;50.892;3.992;2023-05-07T13:08:32;7.32;;;5.40;;
21591;SDS011;10958;50.892;3.992;2023-05-07T13:11:00;6.93;;;4.70;;
21591;SDS011;10958;50.892;3.992;2023-05-07T13:13:28;5.07;;;4.32;;
21591;SDS011;10958;50.892;3.992;2023-05-07T13:15:55;6.65;;;4.70;;
21591;SDS011;10958;50.892;3.992;2023-05-07T13:18:26;7.90;;;5.00;;
21591;SDS011;10958;50.892;3.992;2023-05-07T13:20:55;5.55;;;4.72;;
21591;SDS011;10958;50.892;3.992;2023-05-07T13:23:20;6.85;;;5.03;;
21591;SDS011;10958;50.892;3.992;2023-05-07T13:25:49;5.68;;;4.47;;
21591;SDS011;10958;50.892;3.992;2023-05-07T13:28:15;5.50;;;3.88;;
21591;SDS011;10958;50.892;3.992;2023-05-07T13:30:42;8.68;;;4.40;;
21591;SDS011;10958;50.892;3.992;2023-05-07T13:33:08;7.22;;;5.00;;
21591;SDS011;10958;50.892;3.992;2023-05-07T13:35:35;8.07;;;5.75;;
21591;SDS011;10958;50.892;3.992;2023-05-07T13:38:01;8.77;;;5.40;;
21591;SDS011;10958;50.892;3.992;2023-05-07T13:40:29;9.88;;;6.70;;
21591;SDS011;10958;50.892;3.992;2023-05-07T13:42:56;12.02;;;7.05;;
21591;SDS011;10958;50.892;3.992;2023-05-07T13:45:23;12.48;;;7.45;;
21591;SDS011;10958;50.892;3.992;2023-05-07T13:47:50;10.68;;;7.57;;
21591;SDS011;10958;50.892;3.992;2023-05-07T13:50:19;10.43;;;8.05;;
21591;SDS011;10958;50.892;3.992;2023-05-07T13:52:45;9.98;;;7.97;;
21591;SDS011;10958;50.892;3.992;2023-05-07T13:55:18;12.50;;;8.57;;
21591;SDS011;10958;50.892;3.992;2023-05-07T13:57:46;12.10;;;8.23;;
21591;SDS011;10958;50.892;3.992;2023-05-07T14:00:13;12.50;;;8.95;;
21591;SDS011;10958;50.892;3.992;2023-05-07T14:02:41;13.18;;;8.75;;
21591;SDS011;10958;50.892;3.992;2023-05-07T14:05:09;11.73;;;9.77;;
21591;SDS011;10958;50.892;3.992;2023-05-07T14:07:37;14.40;;;9.30;;
21591;SDS011;10958;50.892;3.992;2023-05-07T14:10:03;13.88;;;9.05;;
21591;SDS011;10958;50.892;3.992;2023-05-07T14:12:29;11.18;;;8.73;;
21591;SDS011;10958;50.892;3.992;2023-05-07T14:14:57;13.45;;;9.63;;
21591;SDS011;10958;50.892;3.992;2023-05-07T14:17:24;15.68;;;9.77;;
21591;SDS011;10958;50.892;3.992;2023-05-07T14:19:55;15.45;;;9.85;;
21591;SDS011;10958;50.892;3.992;2023-05-07T14:22:22;13.27;;;9.93;;
21591;SDS011;10958;50.892;3.992;2023-05-07T14:24:48;14.02;;;10.35;;
21591;SDS011;10958;50.892;3.992;2023-05-07T14:27:15;18.38;;;10.30;;
21591;SDS011;10958;50.892;3.992;2023-05-07T14:29:41;17.17;;;10.35;;
21591;SDS011;10958;50.892;3.992;2023-05-07T14:32:08;17.50;;;10.73;;
21591;SDS011;10958;50.892;3.992;2023-05-07T14:34:33;12.23;;;9.80;;
21591;SDS011;10958;50.892;3.992;2023-05-07T14:36:59;16.15;;;9.45;;
21591;SDS011;10958;50.892;3.992;2023-05-07T14:39:26;15.27;;;9.98;;
21591;SDS011;10958;50.892;3.992;2023-05-07T14:41:52;13.75;;;10.05;;
21591;SDS011;10958;50.892;3.992;2023-05-07T14:44:19;17.00;;;11.20;;
21591;SDS011;10958;50.892;3.992;2023-05-07T14:46:45;16.23;;;11.18;;
21591;SDS011;10958;50.892;3.992;2023-05-07T14:49:11;13.73;;;10.48;;
21591;SDS011;10958;50.892;3.992;2023-05-07T14:51:42;12.52;;;9.65;;
21591;SDS011;10958;50.892;3.992;2023-05-07T14:54:09;17.35;;;10.90;;
21591;SDS011;10958;50.892;3.992;2023-05-07T14:56:35;18.52;;;11.52;;
21591;SDS011;10958;50.892;3.992;2023-05-07T14:59:02;14.93;;;10.68;;
21591;SDS011;10958;50.892;3.992;2023-05-07T15:01:28;17.00;;;12.05;;
21591;SDS011;10958;50.892;3.992;2023-05-07T15:03:54;19.40;;;12.85;;
21591;SDS011;10958;50.892;3.992;2023-05-07T15:06:20;19.35;;;12.57;;
21591;SDS011;10958;50.892;3.992;2023-05-07T15:08:46;19.30;;;13.52;;